KBKS

Brooks County Airport

Falfurrias, Texas, USA
METAR KBKS 151455Z AUTO 16014KT 10SM SCT018 SCT025 30/24 A2997 RMK AO1 T03010235
Observed Flight Rules
Aug-15 @ 14:55 UTC (6 minutes ago) Visual Flight Rules
Wind Visibility Clouds
160° at 14 knots 10 miles
  • Scattered at 1,800' AGL
  • Scattered at 2,500' AGL
Temperatures Readings
Current 30°C / 86°F
Dewpoint 24°C / 75°F
Humidity 70%
Altimeter 29.97" Hg
Pressure 1015 hPa
Elevation 34
METAR KBKS 151455Z AUTO 16014KT 10SM SCT018 SCT025 30/24 A2997 RMK AO1 T03010235
Observed Flight Rules
Aug-15 @ 14:55 UTC
(6 minutes ago)
VFR
Wind Visibility
160° at 14 knots 10 miles
Clouds
  • Scattered at 1,800' AGL
  • Scattered at 2,500' AGL
Temperature Dewpoint
30°C / 86°F 24°C / 75°F
Humidity Altimeter Pressure
70% 29.97" Hg 1015 hPa